createdAt,value
2018-01-25T00:00:06.519Z,75.50
2018-01-25T00:01:06.887Z,75.50
2018-01-25T00:02:06.435Z,75.50
2018-01-25T00:03:06.313Z,75.40
2018-01-25T00:04:06.239Z,75.40
2018-01-25T00:05:10.766Z,75.60
2018-01-25T00:06:09.816Z,75.60
2018-01-25T00:07:09.106Z,75.60
2018-01-25T00:08:06.139Z,75.60
2018-01-25T00:09:09.254Z,75.70
2018-01-25T00:10:06.286Z,75.70
2018-01-25T00:11:06.432Z,75.70
2018-01-25T00:12:06.533Z,75.80
2018-01-25T00:13:06.981Z,75.90
2018-01-25T00:14:10.847Z,75.90
2018-01-25T00:15:06.677Z,75.90
2018-01-25T00:16:08.823Z,76.10
2018-01-25T00:17:06.450Z,76.10
2018-01-25T00:18:06.257Z,76.10
2018-01-25T00:19:06.632Z,76.10
2018-01-25T00:20:06.689Z,76.10
2018-01-25T00:21:06.209Z,76.20
2018-01-25T00:22:10.908Z,76.30
2018-01-25T00:23:13.955Z,76.50
2018-01-25T00:24:11.675Z,76.50
2018-01-25T00:25:06.569Z,76.50
2018-01-25T00:26:06.474Z,76.40
2018-01-25T00:27:06.418Z,76.50
2018-01-25T00:28:06.601Z,76.50
2018-01-25T00:29:13.729Z,76.60
2018-01-25T00:30:11.419Z,76.60
2018-01-25T00:31:06.548Z,76.60
2018-01-25T00:32:08.910Z,76.80
2018-01-25T00:33:09.113Z,76.80
2018-01-25T00:34:05.872Z,76.80
2018-01-25T00:35:06.662Z,76.80
2018-01-25T00:36:10.788Z,76.90
2018-01-25T00:37:06.740Z,76.90
2018-01-25T00:38:11.215Z,77.00
2018-01-25T00:39:06.339Z,77.00
2018-01-25T00:40:10.660Z,77.20
2018-01-25T00:41:06.741Z,77.20
2018-01-25T00:42:06.177Z,77.20
2018-01-25T00:43:06.376Z,77.20
2018-01-25T00:44:06.465Z,77.30
2018-01-25T00:45:06.932Z,77.30
2018-01-25T00:46:06.588Z,77.30
2018-01-25T00:47:06.206Z,77.30
2018-01-25T00:48:06.654Z,77.30
2018-01-25T00:49:06.735Z,77.30
2018-01-25T00:50:06.325Z,77.40
2018-01-25T00:51:11.114Z,77.30
2018-01-25T00:52:06.196Z,77.30
2018-01-25T00:53:06.208Z,77.40
2018-01-25T00:54:06.651Z,77.40
2018-01-25T00:55:10.753Z,77.50
2018-01-25T00:56:06.191Z,77.50
2018-01-25T00:57:08.633Z,77.60
2018-01-25T00:58:06.568Z,77.60
2018-01-25T00:59:11.223Z,77.70
2018-01-25T01:00:08.194Z,77.70
2018-01-25T01:01:06.741Z,77.60
2018-01-25T01:02:06.284Z,77.70
2018-01-25T01:03:06.541Z,77.70
2018-01-25T01:04:06.256Z,77.70
2018-01-25T01:05:09.371Z,77.80
2018-01-25T01:06:10.864Z,77.80
2018-01-25T01:07:08.833Z,77.80
2018-01-25T01:08:09.068Z,77.90
2018-01-25T01:09:08.305Z,77.90
2018-01-25T01:10:08.444Z,77.90
2018-01-25T01:11:08.571Z,78.00
2018-01-25T01:12:06.866Z,78.00
2018-01-25T01:13:11.086Z,78.00
2018-01-25T01:14:06.442Z,78.00
2018-01-25T01:15:11.182Z,78.10
2018-01-25T01:16:06.371Z,78.10
2018-01-25T01:17:06.669Z,78.10
2018-01-25T01:18:06.522Z,78.10
2018-01-25T01:19:06.346Z,78.10
2018-01-25T01:20:06.743Z,78.00
2018-01-25T01:21:08.997Z,78.00
2018-01-25T01:22:06.772Z,78.00
2018-01-25T01:23:06.207Z,77.90
2018-01-25T01:24:06.470Z,78.00
2018-01-25T01:25:06.289Z,78.10
2018-01-25T01:26:06.617Z,78.00
2018-01-25T01:27:06.504Z,78.00
2018-01-25T01:28:06.335Z,78.00
2018-01-25T01:29:06.315Z,78.00
2018-01-25T01:30:06.474Z,78.00
2018-01-25T01:31:07.069Z,78.00
2018-01-25T01:32:10.788Z,78.00
2018-01-25T01:33:08.818Z,78.00
2018-01-25T01:34:08.893Z,78.00
2018-01-25T01:35:11.006Z,78.00
2018-01-25T01:36:06.756Z,78.00
2018-01-25T01:37:10.757Z,78.10
2018-01-25T01:38:08.948Z,78.00
2018-01-25T01:39:06.761Z,78.10
2018-01-25T01:40:06.230Z,78.10
2018-01-25T01:41:06.250Z,78.10
2018-01-25T01:42:06.595Z,78.10
2018-01-25T01:43:08.634Z,78.10
2018-01-25T01:44:06.528Z,78.10
2018-01-25T01:45:11.542Z,78.10
2018-01-25T01:46:08.614Z,78.10
2018-01-25T01:47:06.935Z,78.10
2018-01-25T01:48:05.882Z,78.10
2018-01-25T01:49:06.723Z,78.00
2018-01-25T01:50:10.736Z,78.10
2018-01-25T01:51:06.471Z,78.10
2018-01-25T01:52:06.276Z,78.10
2018-01-25T01:53:06.671Z,78.10
2018-01-25T01:54:06.647Z,78.10
2018-01-25T01:55:06.550Z,78.10
2018-01-25T01:56:06.196Z,78.00
2018-01-25T01:57:06.473Z,78.10
2018-01-25T01:58:10.849Z,78.10
2018-01-25T01:59:06.537Z,78.10
2018-01-25T02:00:06.334Z,78.10
2018-01-25T02:01:06.358Z,78.10
2018-01-25T02:02:07.144Z,78.10
2018-01-25T02:03:06.617Z,78.10
2018-01-25T02:04:06.652Z,78.10
2018-01-25T02:05:06.651Z,78.10
2018-01-25T02:06:06.800Z,78.10
2018-01-25T02:07:06.504Z,78.10
2018-01-25T02:08:06.335Z,78.20
2018-01-25T02:09:08.879Z,78.10
2018-01-25T02:10:11.426Z,78.10
2018-01-25T02:11:06.618Z,78.10
2018-01-25T02:12:11.544Z,78.20
2018-01-25T02:13:06.275Z,78.20
2018-01-25T02:14:08.241Z,78.20
2018-01-25T02:15:08.368Z,78.30
2018-01-25T02:16:08.529Z,78.30
2018-01-25T02:17:06.571Z,78.30
2018-01-25T02:18:06.327Z,78.30
2018-01-25T02:19:08.153Z,78.20
2018-01-25T02:20:10.863Z,78.20
2018-01-25T02:21:11.407Z,78.30
2018-01-25T02:22:06.607Z,78.20
2018-01-25T02:23:05.934Z,78.20
2018-01-25T02:24:06.665Z,78.20
2018-01-25T02:25:06.529Z,78.20
2018-01-25T02:26:06.438Z,78.20
2018-01-25T02:27:06.650Z,78.30
2018-01-25T02:28:06.224Z,78.30
2018-01-25T02:29:10.567Z,78.20
2018-01-25T02:30:08.276Z,78.20
2018-01-25T02:31:10.804Z,78.20
2018-01-25T02:32:06.831Z,78.20
2018-01-25T02:33:06.823Z,78.20
2018-01-25T02:34:06.574Z,78.20
2018-01-25T02:35:06.609Z,78.20
2018-01-25T02:36:06.618Z,78.20
2018-01-25T02:37:06.349Z,78.20
2018-01-25T02:38:06.417Z,78.20
2018-01-25T02:39:11.080Z,78.30
2018-01-25T02:40:05.900Z,78.30
2018-01-25T02:41:06.309Z,78.30
2018-01-25T02:42:06.463Z,78.40
2018-01-25T02:43:10.816Z,78.50
2018-01-25T02:44:06.653Z,78.50
2018-01-25T02:45:06.632Z,78.60
2018-01-25T02:46:05.926Z,78.60
2018-01-25T02:47:06.501Z,78.60
2018-01-25T02:48:06.438Z,78.60
2018-01-25T02:49:06.571Z,78.60
2018-01-25T02:50:09.116Z,78.70
2018-01-25T02:51:06.318Z,78.70
2018-01-25T02:52:09.177Z,78.70
2018-01-25T02:53:06.964Z,78.80
2018-01-25T02:54:06.018Z,78.80
2018-01-25T02:55:11.103Z,78.70
2018-01-25T02:56:06.449Z,78.70
2018-01-25T02:57:06.599Z,78.80
2018-01-25T02:58:11.589Z,78.80
2018-01-25T02:59:11.195Z,78.90
2018-01-25T03:00:08.370Z,78.90
2018-01-25T03:01:11.188Z,79.00
2018-01-25T03:02:06.067Z,79.00
2018-01-25T03:03:06.492Z,79.00
2018-01-25T03:04:06.958Z,79.00
2018-01-25T03:05:06.549Z,79.10
2018-01-25T03:06:06.631Z,79.10
2018-01-25T03:07:11.512Z,79.10
2018-01-25T03:08:06.318Z,79.20
2018-01-25T03:09:11.712Z,79.20
2018-01-25T03:10:11.365Z,79.20
2018-01-25T03:11:06.870Z,79.20
2018-01-25T03:12:06.701Z,79.20
2018-01-25T03:13:06.597Z,79.20
2018-01-25T03:14:11.273Z,79.20
2018-01-25T03:15:09.193Z,79.20
2018-01-25T03:16:08.438Z,79.30
2018-01-25T03:17:08.820Z,79.20
2018-01-25T03:18:08.845Z,79.20
2018-01-25T03:19:09.140Z,79.30
2018-01-25T03:20:06.331Z,79.30
2018-01-25T03:21:06.475Z,79.20
2018-01-25T03:22:06.715Z,79.30
2018-01-25T03:23:06.512Z,79.30
2018-01-25T03:24:06.377Z,79.30
2018-01-25T03:25:06.965Z,79.20
2018-01-25T03:26:08.791Z,79.20
2018-01-25T03:27:08.882Z,79.30
2018-01-25T03:28:06.898Z,79.30
2018-01-25T03:29:08.644Z,52.90
2018-01-25T03:30:09.064Z,79.40
2018-01-25T03:31:05.979Z,79.40
2018-01-25T03:32:10.849Z,79.40
2018-01-25T03:33:06.600Z,79.40
2018-01-25T03:34:10.958Z,79.40
2018-01-25T03:35:06.640Z,79.40
2018-01-25T03:36:06.706Z,79.40
2018-01-25T03:37:06.284Z,79.40
2018-01-25T03:38:06.543Z,79.40
2018-01-25T03:39:06.962Z,79.30
2018-01-25T03:40:06.652Z,79.30
2018-01-25T03:41:06.334Z,79.40
2018-01-25T03:42:08.870Z,79.40
2018-01-25T03:43:06.451Z,79.30
2018-01-25T03:44:06.403Z,79.40
2018-01-25T03:45:06.789Z,79.40
2018-01-25T03:46:06.682Z,79.50
2018-01-25T03:47:11.195Z,79.40
2018-01-25T03:48:06.083Z,79.40
2018-01-25T03:49:10.581Z,79.40
2018-01-25T03:50:11.037Z,79.40
2018-01-25T03:51:09.230Z,79.40
2018-01-25T03:52:06.440Z,79.50
2018-01-25T03:53:13.625Z,79.60
2018-01-25T03:54:08.870Z,79.70
2018-01-25T03:55:11.608Z,79.80
2018-01-25T03:56:11.036Z,79.70
2018-01-25T03:57:06.648Z,79.80
2018-01-25T03:58:10.458Z,80.00
2018-01-25T03:59:06.619Z,79.90
2018-01-25T04:00:06.393Z,80.00
2018-01-25T04:01:11.254Z,80.00
2018-01-25T04:02:08.209Z,80.00
2018-01-25T04:03:06.427Z,80.00
2018-01-25T04:04:06.401Z,79.90
2018-01-25T04:05:06.713Z,79.80
2018-01-25T04:06:08.381Z,79.70
2018-01-25T04:07:06.446Z,79.70
2018-01-25T04:08:06.680Z,79.70
2018-01-25T04:09:06.725Z,79.60
2018-01-25T04:10:06.465Z,79.60
2018-01-25T04:11:06.650Z,79.60
2018-01-25T04:12:10.886Z,79.50
2018-01-25T04:13:11.737Z,79.50
2018-01-25T04:14:09.005Z,79.50
2018-01-25T04:15:10.901Z,79.50
2018-01-25T04:16:11.394Z,79.50
2018-01-25T04:17:06.621Z,79.60
2018-01-25T04:18:06.404Z,79.70
2018-01-25T04:19:11.054Z,79.70
2018-01-25T04:20:06.768Z,79.50
2018-01-25T04:21:11.349Z,79.70
2018-01-25T04:22:06.789Z,79.70
2018-01-25T04:23:11.356Z,79.70
2018-01-25T04:24:11.632Z,79.70
2018-01-25T04:25:06.701Z,79.70
2018-01-25T04:26:11.672Z,79.70
2018-01-25T04:27:06.696Z,79.60
2018-01-25T04:28:08.594Z,79.70
2018-01-25T04:29:06.658Z,79.70
2018-01-25T04:30:08.492Z,79.70
2018-01-25T04:31:06.447Z,79.70
2018-01-25T04:32:06.908Z,79.80
2018-01-25T04:33:11.209Z,79.70
2018-01-25T04:34:10.997Z,79.70
2018-01-25T04:35:10.796Z,79.70
2018-01-25T04:36:16.450Z,79.70
2018-01-25T04:37:13.689Z,79.70
2018-01-25T04:38:08.926Z,79.70
2018-01-25T04:39:06.691Z,79.70
2018-01-25T04:40:06.616Z,79.60
2018-01-25T04:41:06.453Z,79.50
2018-01-25T04:42:06.732Z,79.50
2018-01-25T04:43:06.770Z,79.50
2018-01-25T04:44:06.130Z,79.50
2018-01-25T04:45:06.559Z,79.40
2018-01-25T04:46:11.331Z,79.40
2018-01-25T04:47:06.044Z,79.50
2018-01-25T04:48:06.710Z,79.20
2018-01-25T04:49:14.235Z,79.20
2018-01-25T04:50:08.505Z,79.40
2018-01-25T04:51:11.138Z,79.20
2018-01-25T04:52:10.563Z,79.50
2018-01-25T04:53:06.627Z,79.30
2018-01-25T04:54:08.675Z,79.50
2018-01-25T04:55:06.982Z,79.40
2018-01-25T04:56:06.850Z,79.50
2018-01-25T04:57:06.916Z,79.50
2018-01-25T04:58:06.263Z,79.60
2018-01-25T04:59:08.519Z,79.70
2018-01-25T05:00:06.471Z,79.50
2018-01-25T05:01:06.558Z,79.60
2018-01-25T05:02:08.356Z,79.70
2018-01-25T05:03:11.135Z,79.70
2018-01-25T05:04:06.113Z,79.60
2018-01-25T05:05:06.507Z,79.50
2018-01-25T05:06:06.569Z,79.50
2018-01-25T05:07:06.207Z,79.50
2018-01-25T05:08:06.171Z,79.40
2018-01-25T05:09:06.089Z,79.30
2018-01-25T05:10:06.027Z,79.20
2018-01-25T05:11:07.040Z,79.10
2018-01-25T05:12:06.732Z,79.00
2018-01-25T05:13:06.652Z,78.80
2018-01-25T05:14:06.602Z,78.80
2018-01-25T05:15:06.383Z,78.70
2018-01-25T05:16:06.539Z,78.70
2018-01-25T05:17:11.678Z,78.70
2018-01-25T05:18:06.942Z,78.70
2018-01-25T05:19:06.069Z,78.70
2018-01-25T05:20:06.971Z,78.70
2018-01-25T05:21:06.475Z,78.70
2018-01-25T05:22:10.572Z,78.70
2018-01-25T05:23:06.598Z,78.70
2018-01-25T05:24:13.779Z,78.70
2018-01-25T05:25:10.605Z,78.70
2018-01-25T05:26:06.592Z,78.70
2018-01-25T05:27:08.662Z,78.60
2018-01-25T05:28:06.970Z,78.60
2018-01-25T05:29:06.090Z,78.70
2018-01-25T05:30:06.193Z,78.80
2018-01-25T05:31:11.382Z,78.70
2018-01-25T05:32:06.657Z,78.70
2018-01-25T05:33:08.854Z,78.70
2018-01-25T05:34:06.717Z,78.70
2018-01-25T05:35:06.771Z,78.70
2018-01-25T05:36:08.422Z,78.60
2018-01-25T05:37:08.709Z,78.50
2018-01-25T05:38:06.787Z,78.50
2018-01-25T05:39:06.132Z,78.60
2018-01-25T05:40:06.694Z,78.60
2018-01-25T05:41:06.603Z,78.70
2018-01-25T05:42:10.922Z,78.60
2018-01-25T05:43:06.716Z,78.60
2018-01-25T05:44:08.763Z,78.70
2018-01-25T05:45:11.502Z,78.70
2018-01-25T05:46:06.525Z,78.70
2018-01-25T05:47:06.135Z,78.70
2018-01-25T05:48:11.060Z,78.70
2018-01-25T05:49:10.752Z,78.70
2018-01-25T05:50:06.620Z,78.60
2018-01-25T05:51:06.086Z,78.60
2018-01-25T05:52:06.161Z,78.50
2018-01-25T05:53:06.753Z,78.30
2018-01-25T05:54:06.556Z,78.50
2018-01-25T05:55:08.070Z,78.50
2018-01-25T05:56:08.096Z,78.60
2018-01-25T05:57:06.055Z,78.60
2018-01-25T05:58:06.130Z,78.40
2018-01-25T05:59:06.520Z,78.40
2018-01-25T06:00:06.171Z,78.30
2018-01-25T06:01:08.656Z,78.20
2018-01-25T06:02:06.497Z,78.20
2018-01-25T06:03:06.707Z,78.20
2018-01-25T06:04:13.611Z,78.20
2018-01-25T06:05:06.715Z,78.20
2018-01-25T06:06:06.633Z,78.20
2018-01-25T06:07:06.861Z,78.20
2018-01-25T06:08:09.325Z,78.20
2018-01-25T06:09:06.214Z,78.20
2018-01-25T06:10:08.553Z,78.30
2018-01-25T06:11:11.050Z,78.40
2018-01-25T06:12:06.913Z,78.40
2018-01-25T06:13:06.988Z,78.30
2018-01-25T06:14:06.155Z,78.30
2018-01-25T06:15:05.804Z,78.40
2018-01-25T06:16:07.044Z,78.30
2018-01-25T06:17:06.195Z,78.40
2018-01-25T06:18:10.993Z,78.50
2018-01-25T06:19:06.805Z,78.50
2018-01-25T06:20:06.644Z,78.50
2018-01-25T06:21:06.661Z,78.50
2018-01-25T06:22:11.116Z,78.40
2018-01-25T06:23:06.785Z,78.40
2018-01-25T06:24:09.141Z,78.50
2018-01-25T06:25:08.607Z,78.50
2018-01-25T06:26:06.840Z,78.50
2018-01-25T06:27:10.976Z,78.50
2018-01-25T06:28:06.880Z,78.50
2018-01-25T06:29:06.888Z,78.50
2018-01-25T06:30:06.685Z,78.50
2018-01-25T06:31:06.964Z,78.50
2018-01-25T06:32:06.431Z,78.60
2018-01-25T06:33:06.617Z,78.70
2018-01-25T06:34:06.717Z,78.70
2018-01-25T06:35:06.710Z,78.70
2018-01-25T06:36:06.172Z,78.80
2018-01-25T06:37:06.851Z,78.80
2018-01-25T06:38:06.564Z,78.80
2018-01-25T06:39:13.375Z,78.80
2018-01-25T06:40:08.468Z,78.90
2018-01-25T06:41:06.181Z,78.90
2018-01-25T06:42:06.543Z,78.90
2018-01-25T06:43:11.481Z,79.00
2018-01-25T06:44:15.819Z,79.00
2018-01-25T06:45:06.729Z,79.00
2018-01-25T06:46:06.227Z,79.00
2018-01-25T06:47:05.815Z,79.00
2018-01-25T06:48:08.551Z,79.10
2018-01-25T06:49:09.401Z,79.10
2018-01-25T06:50:06.176Z,79.10
2018-01-25T06:51:06.189Z,79.10
2018-01-25T06:52:08.375Z,79.20
2018-01-25T06:53:11.087Z,79.20
2018-01-25T06:54:06.148Z,79.20
2018-01-25T06:55:06.822Z,79.20
2018-01-25T06:56:06.156Z,79.20
2018-01-25T06:57:06.804Z,79.20
2018-01-25T06:58:06.468Z,79.20
2018-01-25T06:59:11.244Z,79.30
2018-01-25T07:00:10.605Z,79.30
2018-01-25T07:01:08.641Z,79.20
2018-01-25T07:02:11.361Z,79.20
2018-01-25T07:03:06.545Z,79.30
2018-01-25T07:04:10.692Z,79.30
2018-01-25T07:05:11.421Z,79.20
2018-01-25T07:06:06.241Z,79.20
2018-01-25T07:07:06.777Z,79.20
2018-01-25T07:08:08.557Z,79.40
2018-01-25T07:09:06.195Z,79.30
2018-01-25T07:10:06.499Z,79.30
2018-01-25T07:11:06.902Z,79.30
2018-01-25T07:12:11.399Z,79.40
2018-01-25T07:13:08.589Z,79.40
2018-01-25T07:14:11.190Z,79.30
2018-01-25T07:15:05.915Z,79.30
2018-01-25T07:16:06.469Z,79.30
2018-01-25T07:17:06.536Z,79.40
2018-01-25T07:18:06.467Z,79.40
2018-01-25T07:19:06.823Z,79.40
2018-01-25T07:20:06.592Z,79.40
2018-01-25T07:21:11.132Z,79.50
2018-01-25T07:22:06.671Z,79.50
2018-01-25T07:23:08.725Z,79.60
2018-01-25T07:24:06.679Z,79.60
2018-01-25T07:25:06.707Z,79.60
2018-01-25T07:26:06.730Z,79.60
2018-01-25T07:27:08.165Z,79.60
2018-01-25T07:28:09.212Z,79.60
2018-01-25T07:29:06.517Z,79.60
2018-01-25T07:30:06.235Z,79.60
2018-01-25T07:31:10.999Z,79.70
2018-01-25T07:32:11.098Z,79.60
2018-01-25T07:33:11.500Z,79.70
2018-01-25T07:34:06.249Z,79.60
2018-01-25T07:35:08.795Z,79.70
2018-01-25T07:36:11.432Z,79.70
2018-01-25T07:37:06.239Z,79.70
2018-01-25T07:38:08.156Z,79.70
2018-01-25T07:39:10.776Z,79.80
2018-01-25T07:40:11.176Z,79.80
2018-01-25T07:41:10.889Z,79.80
2018-01-25T07:42:06.647Z,79.80
2018-01-25T07:43:08.944Z,79.80
2018-01-25T07:44:09.255Z,79.80
2018-01-25T07:45:08.563Z,79.80
2018-01-25T07:46:06.637Z,79.80
2018-01-25T07:47:06.617Z,79.70
2018-01-25T07:48:06.895Z,79.80
2018-01-25T07:49:06.926Z,79.70
2018-01-25T07:50:08.688Z,79.70
2018-01-25T07:51:06.694Z,79.70
2018-01-25T07:52:06.611Z,79.70
2018-01-25T07:53:06.607Z,79.50
2018-01-25T07:54:06.276Z,79.60
2018-01-25T07:55:09.017Z,79.40
2018-01-25T07:56:05.890Z,79.40
2018-01-25T07:57:11.136Z,79.40
2018-01-25T07:58:10.622Z,79.30
2018-01-25T07:59:08.691Z,79.20
2018-01-25T08:00:06.840Z,79.30
2018-01-25T08:01:06.675Z,79.00
2018-01-25T08:02:06.717Z,79.00
2018-01-25T08:03:08.526Z,79.20
2018-01-25T08:04:06.795Z,79.20
2018-01-25T08:05:07.003Z,79.20
2018-01-25T08:06:06.759Z,79.10
2018-01-25T08:07:08.345Z,79.10
2018-01-25T08:08:06.236Z,79.10
2018-01-25T08:09:11.375Z,79.00
2018-01-25T08:10:05.862Z,79.00
2018-01-25T08:11:10.754Z,79.10
2018-01-25T08:12:06.293Z,79.00
2018-01-25T08:13:11.001Z,79.00
2018-01-25T08:14:05.891Z,78.90
2018-01-25T08:15:06.730Z,78.90
2018-01-25T08:16:06.229Z,78.90
2018-01-25T08:17:06.615Z,78.90
2018-01-25T08:18:06.266Z,78.90
2018-01-25T08:19:06.919Z,78.80
2018-01-25T08:20:06.249Z,78.80
2018-01-25T08:21:06.959Z,78.70
2018-01-25T08:22:06.731Z,78.70
2018-01-25T08:23:06.050Z,78.60
2018-01-25T08:24:06.686Z,78.70
2018-01-25T08:25:06.810Z,78.70
2018-01-25T08:26:06.355Z,78.70
2018-01-25T08:27:08.991Z,78.50
2018-01-25T08:28:06.449Z,78.60
2018-01-25T08:29:06.819Z,78.50
2018-01-25T08:30:06.347Z,78.50
2018-01-25T08:31:11.142Z,78.60
2018-01-25T08:32:08.114Z,78.50
2018-01-25T08:33:10.861Z,78.50
2018-01-25T08:34:06.685Z,78.50
2018-01-25T08:35:10.860Z,78.40
2018-01-25T08:36:06.827Z,78.40
2018-01-25T08:37:08.510Z,78.20
2018-01-25T08:38:06.678Z,78.20
2018-01-25T08:39:06.343Z,78.10
2018-01-25T08:40:08.241Z,77.90
2018-01-25T08:41:06.256Z,77.90
2018-01-25T08:42:06.673Z,77.80
2018-01-25T08:43:05.978Z,77.90
2018-01-25T08:44:08.672Z,77.80
2018-01-25T08:45:06.669Z,77.80
2018-01-25T08:46:06.606Z,78.00
2018-01-25T08:47:06.348Z,78.00
2018-01-25T08:48:06.286Z,78.00
2018-01-25T08:49:06.921Z,78.00
2018-01-25T08:50:08.625Z,77.80
2018-01-25T08:51:12.357Z,77.90
2018-01-25T08:52:06.578Z,77.80
2018-01-25T08:53:06.684Z,77.80
2018-01-25T08:54:05.889Z,77.80
2018-01-25T08:55:06.337Z,77.90
2018-01-25T08:56:06.768Z,77.80
2018-01-25T08:57:13.215Z,77.80
2018-01-25T08:58:06.246Z,77.80
2018-01-25T08:59:06.392Z,77.90
2018-01-25T09:00:05.911Z,77.90
2018-01-25T09:01:05.904Z,78.00
2018-01-25T09:02:13.953Z,78.00
2018-01-25T09:03:06.812Z,78.00
2018-01-25T09:04:06.699Z,78.00
2018-01-25T09:05:09.218Z,78.00
2018-01-25T09:06:06.225Z,78.00
2018-01-25T09:07:11.664Z,77.80
2018-01-25T09:08:11.299Z,77.70
2018-01-25T09:09:06.049Z,77.70
2018-01-25T09:10:06.657Z,77.60
2018-01-25T09:11:14.007Z,77.60
2018-01-25T09:12:05.907Z,77.60
2018-01-25T09:13:06.315Z,77.50
2018-01-25T09:14:11.667Z,77.50
2018-01-25T09:15:08.745Z,77.50
2018-01-25T09:16:06.783Z,77.50
2018-01-25T09:17:09.196Z,77.20
2018-01-25T09:18:10.740Z,77.30
2018-01-25T09:19:06.754Z,77.30
2018-01-25T09:20:06.745Z,77.20
2018-01-25T09:21:06.733Z,77.10
2018-01-25T09:22:08.655Z,76.90
2018-01-25T09:23:06.694Z,76.90
2018-01-25T09:24:10.737Z,76.80
2018-01-25T09:25:06.371Z,76.70
2018-01-25T09:26:11.370Z,76.80
2018-01-25T09:27:10.907Z,76.60
2018-01-25T09:28:06.915Z,76.60
2018-01-25T09:29:06.762Z,76.60
2018-01-25T09:30:07.035Z,76.70
2018-01-25T09:31:05.988Z,76.60
2018-01-25T09:32:11.263Z,76.70
2018-01-25T09:33:06.253Z,76.80
2018-01-25T09:34:08.908Z,76.70
2018-01-25T09:35:06.781Z,76.70
2018-01-25T09:36:06.007Z,76.90
2018-01-25T09:37:13.735Z,76.90
2018-01-25T09:38:06.676Z,76.80
2018-01-25T09:39:11.150Z,76.70
2018-01-25T09:40:05.987Z,76.70
2018-01-25T09:41:06.374Z,76.70
2018-01-25T09:42:06.348Z,76.40
2018-01-25T09:43:06.774Z,76.40
2018-01-25T09:44:06.848Z,76.40
2018-01-25T09:45:06.253Z,76.20
2018-01-25T09:46:07.002Z,76.10
2018-01-25T09:47:06.340Z,75.90
2018-01-25T09:48:07.074Z,76.00
2018-01-25T09:49:06.695Z,75.90
2018-01-25T09:50:06.804Z,75.80
2018-01-25T09:51:11.616Z,75.70
2018-01-25T09:52:11.242Z,75.70
2018-01-25T09:53:06.360Z,75.70
2018-01-25T09:54:06.705Z,75.90
2018-01-25T09:55:13.410Z,75.80
2018-01-25T09:56:06.126Z,75.70
2018-01-25T09:57:06.806Z,75.90
2018-01-25T09:58:06.671Z,75.90
2018-01-25T09:59:06.755Z,75.90
2018-01-25T10:00:05.986Z,76.10
2018-01-25T10:01:10.557Z,76.10
2018-01-25T10:02:06.034Z,76.20
2018-01-25T10:03:09.182Z,76.10
2018-01-25T10:04:10.823Z,75.70
2018-01-25T10:05:06.477Z,75.70
2018-01-25T10:06:07.077Z,75.70
2018-01-25T10:07:10.980Z,75.80
2018-01-25T10:08:07.009Z,75.80
2018-01-25T10:09:06.995Z,75.70
2018-01-25T10:10:06.926Z,75.70
2018-01-25T10:11:06.004Z,75.50
2018-01-25T10:12:06.301Z,75.50
2018-01-25T10:13:09.050Z,75.40
2018-01-25T10:14:06.013Z,75.40
2018-01-25T10:15:09.405Z,75.30
2018-01-25T10:16:11.151Z,75.30
2018-01-25T10:17:10.901Z,75.40
2018-01-25T10:18:06.823Z,75.50
2018-01-25T10:19:06.080Z,75.50
2018-01-25T10:20:11.621Z,75.50
2018-01-25T10:21:06.712Z,75.20
2018-01-25T10:22:06.028Z,75.00
2018-01-25T10:23:06.765Z,75.00
2018-01-25T10:24:06.956Z,74.90
2018-01-25T10:25:10.878Z,74.70
2018-01-25T10:26:11.388Z,74.80
2018-01-25T10:27:10.946Z,74.80
2018-01-25T10:28:07.127Z,74.90
2018-01-25T10:29:09.161Z,75.00
2018-01-25T10:30:06.064Z,75.10
2018-01-25T10:31:06.286Z,75.00
2018-01-25T10:32:06.433Z,75.00
2018-01-25T10:33:06.863Z,75.00
2018-01-25T10:34:06.412Z,75.00
2018-01-25T10:35:06.840Z,75.20
2018-01-25T10:36:06.470Z,75.20
2018-01-25T10:37:07.217Z,75.20
2018-01-25T10:38:09.049Z,74.90
2018-01-25T10:39:06.029Z,74.90
2018-01-25T10:40:13.506Z,74.80
2018-01-25T10:41:06.419Z,74.90
2018-01-25T10:42:13.299Z,74.50
2018-01-25T10:43:06.052Z,74.50
2018-01-25T10:44:06.963Z,74.50
2018-01-25T10:45:06.170Z,74.40
2018-01-25T10:46:06.143Z,74.30
2018-01-25T10:47:06.464Z,74.40
2018-01-25T10:48:06.365Z,74.40
2018-01-25T10:49:06.835Z,74.40
2018-01-25T10:50:06.423Z,74.20
2018-01-25T10:51:06.429Z,74.30
2018-01-25T10:52:06.089Z,74.10
2018-01-25T10:53:06.418Z,74.00
2018-01-25T10:54:06.994Z,74.00
2018-01-25T10:55:08.727Z,73.80
2018-01-25T10:56:07.095Z,73.80
2018-01-25T10:57:06.423Z,73.80
2018-01-25T10:58:06.771Z,74.00
2018-01-25T10:59:06.817Z,74.20
2018-01-25T11:00:11.031Z,74.10
2018-01-25T11:01:06.053Z,73.70
2018-01-25T11:02:06.798Z,73.90
2018-01-25T11:03:06.871Z,73.60
2018-01-25T11:04:14.174Z,73.50
2018-01-25T11:05:06.454Z,73.50
2018-01-25T11:06:06.036Z,73.60
2018-01-25T11:07:06.872Z,73.70
2018-01-25T11:08:06.400Z,73.60
2018-01-25T11:09:06.969Z,73.60
2018-01-25T11:10:06.375Z,73.80
2018-01-25T11:11:08.700Z,73.60
2018-01-25T11:12:06.545Z,73.60
2018-01-25T11:13:08.249Z,72.90
2018-01-25T11:14:06.044Z,72.90
2018-01-25T11:15:06.077Z,72.70
2018-01-25T11:16:11.747Z,72.50
2018-01-25T11:17:06.787Z,72.70
2018-01-25T11:18:06.445Z,72.70
2018-01-25T11:19:09.879Z,73.10
2018-01-25T11:20:07.086Z,73.10
2018-01-25T11:21:06.404Z,73.20
2018-01-25T11:22:09.060Z,72.40
2018-01-25T11:23:09.471Z,72.20
2018-01-25T11:24:08.478Z,71.80
2018-01-25T11:25:09.101Z,71.60
2018-01-25T11:26:06.141Z,71.60
2018-01-25T11:27:05.677Z,71.80
2018-01-25T11:28:08.778Z,72.20
2018-01-25T11:29:07.106Z,72.20
2018-01-25T11:30:06.474Z,72.20
2018-01-25T11:31:11.274Z,72.50
2018-01-25T11:32:11.031Z,72.40
2018-01-25T11:33:06.090Z,72.40
2018-01-25T11:34:06.391Z,72.20
2018-01-25T11:35:11.642Z,72.20
2018-01-25T11:36:09.184Z,72.30
2018-01-25T11:37:06.427Z,72.30
2018-01-25T11:38:06.821Z,72.50
2018-01-25T11:39:06.895Z,72.40
2018-01-25T11:40:08.587Z,72.30
2018-01-25T11:41:06.753Z,72.30
2018-01-25T11:42:07.094Z,72.00
2018-01-25T11:43:10.829Z,72.00
2018-01-25T11:44:06.543Z,72.00
2018-01-25T11:45:06.781Z,71.80
2018-01-25T11:46:06.374Z,71.80
2018-01-25T11:47:06.827Z,71.40
2018-01-25T11:48:13.791Z,71.00
2018-01-25T11:49:06.797Z,71.00
2018-01-25T11:50:07.156Z,71.10
2018-01-25T11:51:06.130Z,71.30
2018-01-25T11:52:13.561Z,71.20
2018-01-25T11:53:06.410Z,71.10
2018-01-25T11:54:07.238Z,71.00
2018-01-25T11:55:06.096Z,70.80
2018-01-25T11:56:08.631Z,70.60
2018-01-25T11:57:09.659Z,70.50
2018-01-25T11:58:06.864Z,70.50
2018-01-25T11:59:05.737Z,70.60
2018-01-25T12:00:11.210Z,70.30
2018-01-25T12:01:06.248Z,70.50
2018-01-25T12:02:08.715Z,70.60
2018-01-25T12:03:07.033Z,70.60
2018-01-25T12:04:08.269Z,71.00
2018-01-25T12:05:09.011Z,71.10
2018-01-25T12:06:06.047Z,71.10
2018-01-25T12:07:14.645Z,71.40
2018-01-25T12:08:06.490Z,71.40
2018-01-25T12:09:06.880Z,71.40
2018-01-25T12:10:09.039Z,71.50
2018-01-25T12:11:10.009Z,71.70
2018-01-25T12:12:06.201Z,71.70
2018-01-25T12:13:07.152Z,71.70
2018-01-25T12:14:06.868Z,71.50
2018-01-25T12:15:14.671Z,71.50
2018-01-25T12:16:06.604Z,71.50
2018-01-25T12:17:06.445Z,71.60
2018-01-25T12:18:11.765Z,72.10
2018-01-25T12:19:09.023Z,72.10
2018-01-25T12:20:06.389Z,72.10
2018-01-25T12:21:06.516Z,72.20
2018-01-25T12:22:06.804Z,72.20
2018-01-25T12:23:18.271Z,72.20
2018-01-25T12:24:06.198Z,72.10
2018-01-25T12:25:06.118Z,72.10
2018-01-25T12:26:13.985Z,72.20
2018-01-25T12:27:06.218Z,72.20
2018-01-25T12:28:10.821Z,72.30
2018-01-25T12:29:06.509Z,72.30
2018-01-25T12:30:06.558Z,72.30
2018-01-25T12:31:06.869Z,72.20
2018-01-25T12:32:06.145Z,72.30
2018-01-25T12:33:06.127Z,72.60
2018-01-25T12:34:06.589Z,72.60
2018-01-25T12:35:06.478Z,72.70
2018-01-25T12:36:11.547Z,72.90
2018-01-25T12:37:06.613Z,72.90
2018-01-25T12:38:08.299Z,73.00
2018-01-25T12:39:08.498Z,73.00
2018-01-25T12:40:06.573Z,73.00
2018-01-25T12:41:06.502Z,73.00
2018-01-25T12:42:06.053Z,73.00
2018-01-25T12:43:06.615Z,73.20
2018-01-25T12:44:08.458Z,73.30
2018-01-25T12:45:14.391Z,73.20
2018-01-25T12:46:06.191Z,73.20
2018-01-25T12:47:06.122Z,73.20
2018-01-25T12:48:06.501Z,73.10
2018-01-25T12:49:09.098Z,73.10
2018-01-25T12:50:10.556Z,73.20
2018-01-25T12:51:06.542Z,73.20
2018-01-25T12:52:06.068Z,73.30